This is the latest recevied weather packets stored in our database for station/object K9APR. If no packets are shown the sender has not sent any weather packets the latest 1 day(s).
| Time | Temp. | Humidity | Pressure | Rain* | Wind** | Luminosity | Snow |
|---|---|---|---|---|---|---|---|
| 1778037262 | 7.78° C | 92% | 1009.2 hPa | 2.79 mm | - | - | - |
| 1778036721 | 8.33° C | 92% | 1009.2 hPa | 1.02 mm | - | - | - |
| 1778036182 | 8.33° C | 92% | 1008.3 hPa | 0.51 mm | - | - | - |
| 1778035643 | 8.33° C | 92% | 1008.2 hPa | 0.76 mm | - | - | - |
| 1778035101 | 8.33° C | 92% | 1008.1 hPa | 0.76 mm | - | - | - |
| 1778034564 | 8.33° C | 92% | 1008.2 hPa | 1.02 mm | - | - | - |
| 1778034023 | 8.33° C | 92% | 1008.4 hPa | 1.78 mm | - | - | - |
| 1778033482 | 8.33° C | 92% | 1008.5 hPa | 2.29 mm | - | - | - |
| 1778031861 | 8.33° C | 92% | 1008.8 hPa | 2.79 mm | - | - | - |
| 1778031322 | 8.33° C | 92% | 1008.5 hPa | 3.3 mm | - | - | - |
| 1778030781 | 8.89° C | 92% | 1008.8 hPa | 3.56 mm | - | - | - |
| 1778030241 | 8.33° C | 92% | 1008.5 hPa | 3.56 mm | - | - | - |
| 1778029161 | 8.33° C | 92% | 1008.1 hPa | 5.33 mm | - | - | - |
| 1778028622 | 8.89° C | 91% | 1008 hPa | 6.35 mm | - | - | - |
| 1778028085 | 8.89° C | 91% | 1008.3 hPa | 6.6 mm | - | - | - |
| 1778027541 | 8.89° C | 91% | 1008.6 hPa | 6.86 mm | - | - | - |
| 1778027002 | 8.89° C | 91% | 1008.6 hPa | 6.6 mm | - | - | - |
| 1778026462 | 9.44° C | 91% | 1008.4 hPa | 5.84 mm | - | - | - |
| 1778022143 | 10.56° C | 90% | 1007.4 hPa | 3.81 mm | - | - | - |
| 1778021602 | 10.56° C | 90% | 1007.4 hPa | 3.81 mm | - | - | - |
| 1778019981 | 14.44° C | 88% | 1007.3 hPa | 2.29 mm | - | - | - |
* Rain latest hour (hover to see other rain measurements)
** Current wind speed in m/s (hover to see current wind gust speed)